Time;durP1;ratioP1;P1;durP2;ratioP2;P2;SDS_P1;SDS_P2;PMS_P1;PMS_P2;Temp;Humidity;BMP_temperature;BMP_pressure;BME280_temperature;BME280_humidity;BME280_pressure;Samples;Min_cycle;Max_cycle;Signal;HPM_P1;HPM_P2
2021/01/04 00:01:20;;;;;;;19.27;9.17;;;;;;;;;;5033763;28;20430;-69
2021/01/04 00:04:05;;;;;;;15.03;8.77;;;;;;;;;;5034992;28;20792;-69
2021/01/04 00:06:49;;;;;;;17.90;9.33;;;;;;;;;;5032321;28;20500;-69
2021/01/04 00:09:21;;;;;;;16.10;8.87;;;;;;;;;;5015113;28;20511;-69
2021/01/04 00:12:03;;;;;;;16.97;8.27;;;;;;;;;;5032616;28;20438;-69
2021/01/04 00:14:35;;;;;;;19.20;10.00;;;;;;;;;;5034703;28;20485;-69
2021/01/04 00:17:20;;;;;;;16.83;8.40;;;;;;;;;;5034087;28;20891;-69
2021/01/04 00:19:46;;;;;;;18.47;8.60;;;;;;;;;;5033587;28;20395;-69
2021/01/04 00:22:24;;;;;;;16.50;9.53;;;;;;;;;;5033878;28;20895;-69
2021/01/04 00:24:52;;;;;;;13.73;7.57;;;;;;;;;;5033364;28;20457;-69
2021/01/04 00:27:18;;;;;;;13.43;7.90;;;;;;;;;;5034245;28;20505;-69
2021/01/04 00:29:44;;;;;;;19.27;10.60;;;;;;;;;;5030740;28;20446;-69
2021/01/04 00:32:15;;;;;;;19.37;9.77;;;;;;;;;;5030112;28;20422;-69
2021/01/04 00:34:44;;;;;;;16.07;9.17;;;;;;;;;;5034052;28;20926;-73
2021/01/04 00:37:09;;;;;;;15.13;8.50;;;;;;;;;;5031427;28;20445;-69
2021/01/04 00:39:59;;;;;;;15.63;8.87;;;;;;;;;;5034292;28;20942;-69
2021/01/04 00:42:28;;;;;;;15.10;7.80;;;;;;;;;;5008910;28;20481;-69
2021/01/04 00:45:03;;;;;;;20.90;8.90;;;;;;;;;;5014951;28;20794;-70
2021/01/04 00:47:38;;;;;;;13.13;8.03;;;;;;;;;;5033985;28;20793;-69
2021/01/04 00:50:24;;;;;;;14.27;7.67;;;;;;;;;;5033160;28;20433;-69
2021/01/04 00:52:57;;;;;;;17.57;8.53;;;;;;;;;;5022858;28;20497;-69
2021/01/04 00:55:29;;;;;;;15.00;7.93;;;;;;;;;;5031543;28;20490;-69
2021/01/04 00:58:24;;;;;;;16.37;9.07;;;;;;;;;;5033966;28;20766;-69
2021/01/04 01:00:52;;;;;;;20.23;9.00;;;;;;;;;;5027664;28;20439;-69
2021/01/04 01:03:18;;;;;;;16.37;7.67;;;;;;;;;;5033498;28;20891;-69
2021/01/04 01:06:02;;;;;;;13.33;7.87;;;;;;;;;;5032068;28;20462;-69
2021/01/04 01:08:31;;;;;;;13.50;7.23;;;;;;;;;;5034168;28;20390;-69
2021/01/04 01:11:10;;;;;;;10.93;6.80;;;;;;;;;;5032455;28;20760;-69
2021/01/04 01:13:36;;;;;;;12.33;8.07;;;;;;;;;;5033410;28;20457;-69
2021/01/04 01:16:15;;;;;;;14.23;7.50;;;;;;;;;;5031210;28;20482;-69
2021/01/04 01:18:43;;;;;;;13.97;8.77;;;;;;;;;;5033336;28;20486;-69
2021/01/04 01:21:10;;;;;;;19.67;9.60;;;;;;;;;;5032379;28;20509;-69
2021/01/04 01:23:38;;;;;;;12.93;8.33;;;;;;;;;;5033190;28;20419;-69
2021/01/04 01:26:13;;;;;;;14.73;8.30;;;;;;;;;;5031839;28;20919;-69
2021/01/04 01:28:46;;;;;;;13.93;8.03;;;;;;;;;;5033471;28;20390;-69
2021/01/04 01:31:31;;;;;;;14.23;8.30;;;;;;;;;;5029188;28;20419;-70
2021/01/04 01:34:00;;;;;;;12.20;7.93;;;;;;;;;;5033248;28;20497;-69
2021/01/04 01:36:42;;;;;;;13.33;8.10;;;;;;;;;;5031945;28;20442;-68
2021/01/04 01:39:26;;;;;;;16.50;9.40;;;;;;;;;;5033316;28;20396;-68
2021/01/04 01:41:52;;;;;;;14.43;8.10;;;;;;;;;;5031806;28;20418;-68
2021/01/04 01:44:24;;;;;;;13.33;7.73;;;;;;;;;;5031944;28;20798;-68
2021/01/04 01:47:15;;;;;;;12.27;7.80;;;;;;;;;;5032205;28;20524;-70
2021/01/04 01:49:48;;;;;;;20.10;10.37;;;;;;;;;;5032884;28;20938;-68
2021/01/04 01:52:25;;;;;;;15.47;9.33;;;;;;;;;;5032053;28;20423;-69
2021/01/04 01:54:55;;;;;;;13.17;8.23;;;;;;;;;;5033261;28;20512;-68
2021/01/04 01:57:49;;;;;;;12.67;7.53;;;;;;;;;;5030856;28;20432;-68
2021/01/04 02:00:45;;;;;;;15.57;7.77;;;;;;;;;;5033234;28;20410;-68
2021/01/04 02:03:18;;;;;;;15.73;8.60;;;;;;;;;;5015466;28;20451;-68
2021/01/04 02:06:03;;;;;;;11.50;7.30;;;;;;;;;;5032796;28;20454;-69
2021/01/04 02:08:30;;;;;;;17.90;8.77;;;;;;;;;;5013091;28;20418;-68
2021/01/04 02:11:02;;;;;;;14.40;7.57;;;;;;;;;;5018748;28;20938;-68
2021/01/04 02:13:52;;;;;;;15.23;9.93;;;;;;;;;;5032732;28;20409;-68
2021/01/04 02:16:26;;;;;;;18.30;9.27;;;;;;;;;;5032063;28;20460;-68
2021/01/04 02:19:18;;;;;;;17.03;8.80;;;;;;;;;;5032781;28;20919;-68
2021/01/04 02:21:44;;;;;;;14.03;8.80;;;;;;;;;;5032126;28;20433;-68
2021/01/04 02:24:11;;;;;;;14.80;9.27;;;;;;;;;;5032567;28;20513;-68
2021/01/04 02:26:40;;;;;;;12.83;7.13;;;;;;;;;;5031957;28;20458;-68
2021/01/04 02:29:08;;;;;;;13.43;7.80;;;;;;;;;;5031165;28;20402;-68
2021/01/04 02:31:36;;;;;;;19.33;9.83;;;;;;;;;;5027791;28;20486;-69
2021/01/04 02:34:04;;;;;;;16.70;8.70;;;;;;;;;;5029739;28;20771;-68
2021/01/04 02:36:33;;;;;;;18.93;10.07;;;;;;;;;;5031524;28;20458;-69
2021/01/04 02:39:22;;;;;;;14.97;8.60;;;;;;;;;;5032887;28;20891;-68
2021/01/04 02:42:02;;;;;;;17.20;8.83;;;;;;;;;;5028415;28;20440;-68
2021/01/04 02:44:30;;;;;;;14.90;8.17;;;;;;;;;;5032422;28;20423;-68
2021/01/04 02:47:05;;;;;;;15.90;9.63;;;;;;;;;;5030829;28;20520;-68
2021/01/04 02:49:42;;;;;;;18.40;9.10;;;;;;;;;;5031649;28;20434;-69
2021/01/04 02:52:12;;;;;;;13.27;8.23;;;;;;;;;;5031482;28;20430;-68
2021/01/04 02:54:52;;;;;;;11.50;7.43;;;;;;;;;;5033016;28;20455;-69
2021/01/04 02:57:20;;;;;;;18.33;9.17;;;;;;;;;;5036821;28;20424;-68
2021/01/04 02:59:50;;;;;;;17.07;8.60;;;;;;;;;;5036741;28;20501;-68
2021/01/04 03:02:35;;;;;;;13.57;7.90;;;;;;;;;;5033014;28;20427;-68
2021/01/04 03:05:02;;;;;;;18.03;9.03;;;;;;;;;;5017897;28;20499;-68
2021/01/04 03:07:30;;;;;;;16.67;9.27;;;;;;;;;;5029396;28;20429;-69
2021/01/04 03:09:58;;;;;;;13.73;8.63;;;;;;;;;;5047407;28;20566;-69
2021/01/04 03:12:30;;;;;;;15.87;8.40;;;;;;;;;;5031490;28;20501;-69
2021/01/04 03:14:55;;;;;;;12.07;9.37;;;;;;;;;;5056922;28;20460;-69
2021/01/04 03:17:27;;;;;;;15.87;8.23;;;;;;;;;;5054985;28;20450;-69
2021/01/04 03:19:56;;;;;;;12.77;7.43;;;;;;;;;;5056237;28;20428;-69
2021/01/04 03:22:22;;;;;;;19.03;8.37;;;;;;;;;;5044996;28;20424;-69
2021/01/04 03:24:50;;;;;;;11.53;8.73;;;;;;;;;;5015697;28;20919;-68
2021/01/04 03:27:26;;;;;;;13.40;8.20;;;;;;;;;;5022581;28;20430;-69
2021/01/04 03:29:52;;;;;;;13.80;8.63;;;;;;;;;;5055353;28;20436;-68
2021/01/04 03:32:18;;;;;;;29.63;10.50;;;;;;;;;;5053370;28;20731;-69
2021/01/04 03:34:44;;;;;;;20.53;9.60;;;;;;;;;;5039002;28;20454;-68
2021/01/04 03:37:10;;;;;;;15.60;9.80;;;;;;;;;;5036978;28;20850;-68
2021/01/04 03:39:36;;;;;;;15.13;10.17;;;;;;;;;;5055214;28;20426;-68
2021/01/04 03:42:03;;;;;;;14.70;9.07;;;;;;;;;;5053506;28;20433;-69
2021/01/04 03:44:30;;;;;;;16.60;9.23;;;;;;;;;;5055253;28;20520;-68
2021/01/04 03:46:56;;;;;;;14.00;9.33;;;;;;;;;;5053147;28;20468;-70
2021/01/04 03:49:22;;;;;;;17.87;8.60;;;;;;;;;;5015208;28;20406;-69
2021/01/04 03:51:56;;;;;;;18.90;9.10;;;;;;;;;;5015486;28;20416;-69
2021/01/04 03:54:22;;;;;;;18.30;8.70;;;;;;;;;;5054494;28;20442;-69
2021/01/04 03:56:48;;;;;;;17.57;8.70;;;;;;;;;;5054991;28;20445;-69
2021/01/04 03:59:14;;;;;;;16.03;8.10;;;;;;;;;;5034261;28;20753;-69
2021/01/04 04:01:41;;;;;;;14.47;9.30;;;;;;;;;;5035184;28;20443;-69
2021/01/04 04:04:07;;;;;;;14.63;9.40;;;;;;;;;;5050928;28;20446;-69
2021/01/04 04:06:33;;;;;;;17.07;8.93;;;;;;;;;;5054287;28;20496;-69
2021/01/04 04:08:59;;;;;;;20.17;8.70;;;;;;;;;;5036725;28;20427;-69
2021/01/04 04:11:25;;;;;;;14.93;9.50;;;;;;;;;;5035463;28;20414;-69
2021/01/04 04:13:51;;;;;;;14.80;8.60;;;;;;;;;;5049028;28;20430;-69
2021/01/04 04:16:17;;;;;;;17.63;9.00;;;;;;;;;;5052480;28;20426;-69
2021/01/04 04:18:43;;;;;;;12.00;8.33;;;;;;;;;;5052847;28;20421;-69
2021/01/04 04:21:12;;;;;;;13.10;8.13;;;;;;;;;;5054329;28;20402;-69
2021/01/04 04:23:38;;;;;;;18.07;9.13;;;;;;;;;;5052860;28;20432;-69
2021/01/04 04:26:04;;;;;;;14.43;8.30;;;;;;;;;;5054008;28;20446;-69
2021/01/04 04:28:30;;;;;;;20.93;8.67;;;;;;;;;;5052075;28;20434;-69
2021/01/04 04:30:56;;;;;;;14.50;8.43;;;;;;;;;;5054479;28;20426;-69
2021/01/04 04:33:22;;;;;;;11.50;8.23;;;;;;;;;;5042142;28;20434;-69
2021/01/04 04:35:50;;;;;;;15.50;8.97;;;;;;;;;;5030092;28;20447;-69
2021/01/04 04:38:16;;;;;;;16.30;9.30;;;;;;;;;;5023194;28;20990;-69
2021/01/04 04:40:42;;;;;;;14.33;8.50;;;;;;;;;;5014162;28;20884;-69
2021/01/04 04:43:14;;;;;;;13.40;8.70;;;;;;;;;;5028760;28;20421;-71
2021/01/04 04:45:41;;;;;;;18.17;11.00;;;;;;;;;;5053627;28;20993;-69
2021/01/04 04:48:22;;;;;;;14.17;8.63;;;;;;;;;;5046764;28;20787;-69
2021/01/04 04:50:54;;;;;;;16.17;9.67;;;;;;;;;;5022395;28;20427;-69
2021/01/04 04:53:23;;;;;;;14.47;8.77;;;;;;;;;;5021238;28;20906;-69
2021/01/04 04:56:04;;;;;;;13.90;8.10;;;;;;;;;;5053988;28;20804;-69
2021/01/04 04:58:37;;;;;;;18.10;9.53;;;;;;;;;;5051774;28;20782;-69
2021/01/04 05:01:12;;;;;;;19.27;9.53;;;;;;;;;;5053405;28;20441;-69
2021/01/04 05:03:56;;;;;;;15.10;9.70;;;;;;;;;;5051779;28;20425;-69
2021/01/04 05:06:32;;;;;;;18.07;9.77;;;;;;;;;;5053622;28;20456;-69
2021/01/04 05:09:03;;;;;;;15.57;10.00;;;;;;;;;;5051374;28;20436;-69
2021/01/04 05:11:32;;;;;;;11.20;7.40;;;;;;;;;;5050040;28;20395;-69
2021/01/04 05:14:02;;;;;;;17.40;9.93;;;;;;;;;;5051464;28;20452;-69
2021/01/04 05:16:28;;;;;;;13.00;8.90;;;;;;;;;;5053413;28;20879;-69
2021/01/04 05:19:13;;;;;;;15.20;9.43;;;;;;;;;;5050538;28;20433;-69
2021/01/04 05:22:00;;;;;;;17.60;8.80;;;;;;;;;;5053314;28;20422;-69
2021/01/04 05:24:29;;;;;;;10.40;7.83;;;;;;;;;;5039806;28;20452;-69
2021/01/04 05:27:13;;;;;;;19.27;10.03;;;;;;;;;;5033209;28;20533;-69
2021/01/04 05:29:39;;;;;;;15.57;9.47;;;;;;;;;;5032191;28;20422;-69
2021/01/04 05:32:14;;;;;;;19.67;10.10;;;;;;;;;;5031923;28;20417;-69
2021/01/04 05:34:48;;;;;;;16.37;9.37;;;;;;;;;;5045241;28;20441;-69
2021/01/04 05:37:33;;;;;;;19.10;10.17;;;;;;;;;;5042779;28;20417;-69
2021/01/04 05:40:14;;;;;;;14.47;8.60;;;;;;;;;;5047329;28;20945;-69
2021/01/04 05:42:46;;;;;;;18.77;9.63;;;;;;;;;;5053113;28;20394;-69
2021/01/04 05:45:21;;;;;;;17.03;9.47;;;;;;;;;;5033910;28;20466;-69
2021/01/04 05:47:58;;;;;;;17.30;9.53;;;;;;;;;;5053126;28;20410;-69
2021/01/04 05:50:27;;;;;;;20.73;9.70;;;;;;;;;;5050854;28;20421;-69
2021/01/04 05:52:54;;;;;;;14.00;9.27;;;;;;;;;;5052799;28;20434;-69
2021/01/04 05:55:21;;;;;;;19.37;11.23;;;;;;;;;;5049478;28;20461;-69
2021/01/04 05:57:51;;;;;;;18.43;10.03;;;;;;;;;;5030157;28;20426;-69
2021/01/04 06:00:34;;;;;;;21.33;10.13;;;;;;;;;;5031621;28;20476;-69
2021/01/04 06:03:06;;;;;;;13.97;9.00;;;;;;;;;;5032028;28;20415;-69
2021/01/04 06:05:32;;;;;;;18.57;10.33;;;;;;;;;;5032995;28;20841;-69
2021/01/04 06:07:58;;;;;;;21.53;10.20;;;;;;;;;;5033087;28;20446;-69
2021/01/04 06:10:34;;;;;;;21.07;11.03;;;;;;;;;;5032774;28;20414;-69
2021/01/04 06:13:02;;;;;;;16.73;10.07;;;;;;;;;;5031928;28;20427;-69
2021/01/04 06:15:33;;;;;;;24.27;13.70;;;;;;;;;;5033018;28;20818;-69
2021/01/04 06:18:01;;;;;;;25.20;11.50;;;;;;;;;;5032036;28;20416;-69
2021/01/04 06:20:39;;;;;;;17.43;10.43;;;;;;;;;;5032691;28;20495;-69
2021/01/04 06:23:20;;;;;;;19.40;11.13;;;;;;;;;;5030570;28;20430;-69
2021/01/04 06:25:54;;;;;;;18.60;9.13;;;;;;;;;;5032758;28;20462;-69
2021/01/04 06:28:20;;;;;;;22.53;9.83;;;;;;;;;;5030518;28;20509;-69
2021/01/04 06:30:46;;;;;;;16.80;10.97;;;;;;;;;;5033432;28;20418;-69
2021/01/04 06:33:19;;;;;;;20.50;11.27;;;;;;;;;;5035648;28;20506;-69
2021/01/04 06:35:46;;;;;;;23.03;11.70;;;;;;;;;;5036463;28;20411;-69
2021/01/04 06:38:26;;;;;;;21.87;12.00;;;;;;;;;;5034071;28;20427;-69
2021/01/04 06:40:52;;;;;;;22.27;12.73;;;;;;;;;;5035282;28;20430;-70
2021/01/04 06:43:19;;;;;;;27.97;10.30;;;;;;;;;;5035138;28;20423;-69
2021/01/04 06:46:03;;;;;;;23.10;11.77;;;;;;;;;;5035959;28;20450;-69
2021/01/04 06:48:38;;;;;;;25.40;12.30;;;;;;;;;;5035395;28;20421;-69
2021/01/04 06:51:19;;;;;;;25.10;12.50;;;;;;;;;;5036462;28;20377;-69
2021/01/04 06:53:48;;;;;;;21.10;10.87;;;;;;;;;;5035036;28;20941;-69
2021/01/04 06:56:23;;;;;;;22.43;12.10;;;;;;;;;;5036669;28;20429;-70
2021/01/04 06:59:09;;;;;;;26.13;12.53;;;;;;;;;;5035288;28;20425;-69
2021/01/04 07:01:44;;;;;;;25.63;12.03;;;;;;;;;;5034058;28;20984;-70
2021/01/04 07:04:45;;;;;;;20.97;11.20;;;;;;;;;;5034622;28;20514;-69
2021/01/04 07:07:14;;;;;;;23.10;12.40;;;;;;;;;;5014419;28;20419;-69
2021/01/04 07:09:50;;;;;;;22.40;11.80;;;;;;;;;;5030258;28;20434;-69
2021/01/04 07:12:24;;;;;;;21.73;10.80;;;;;;;;;;5036076;28;20398;-69
2021/01/04 07:15:02;;;;;;;21.37;13.47;;;;;;;;;;5033360;28;20446;-70
2021/01/04 07:17:51;;;;;;;19.07;11.37;;;;;;;;;;5035765;28;20449;-69
2021/01/04 07:20:33;;;;;;;27.40;13.10;;;;;;;;;;5035634;28;20411;-70
2021/01/04 07:23:17;;;;;;;23.27;13.03;;;;;;;;;;5034305;28;20383;-69
2021/01/04 07:26:02;;;;;;;25.80;12.53;;;;;;;;;;5035263;28;20988;-69
2021/01/04 07:28:43;;;;;;;25.93;14.10;;;;;;;;;;5034744;28;20422;-69
2021/01/04 07:31:29;;;;;;;29.93;14.03;;;;;;;;;;5035618;28;20480;-69
2021/01/04 07:34:05;;;;;;;23.53;11.73;;;;;;;;;;5029524;28;20786;-69
2021/01/04 07:36:50;;;;;;;20.27;12.87;;;;;;;;;;5035281;28;20410;-69
2021/01/04 07:39:18;;;;;;;35.60;14.30;;;;;;;;;;5034178;28;20434;-69
2021/01/04 07:42:07;;;;;;;26.13;12.67;;;;;;;;;;5032635;28;20954;-69
2021/01/04 07:44:46;;;;;;;28.00;14.23;;;;;;;;;;5034089;28;20462;-69
2021/01/04 07:47:15;;;;;;;28.40;12.87;;;;;;;;;;5035688;28;20468;-69
2021/01/04 07:49:51;;;;;;;30.10;14.10;;;;;;;;;;5035633;28;20781;-69
2021/01/04 07:52:35;;;;;;;23.07;12.07;;;;;;;;;;5036835;28;20440;-69
2021/01/04 07:55:07;;;;;;;23.83;12.70;;;;;;;;;;5034259;28;20885;-70
2021/01/04 07:57:39;;;;;;;23.47;11.73;;;;;;;;;;5036354;28;20410;-69
2021/01/04 08:00:13;;;;;;;31.77;13.10;;;;;;;;;;5033511;28;20434;-69
2021/01/04 08:03:12;;;;;;;20.97;11.50;;;;;;;;;;5035461;28;20450;-69
2021/01/04 08:05:49;;;;;;;26.80;14.07;;;;;;;;;;4989332;28;20501;-69
2021/01/04 08:08:18;;;;;;;26.90;13.47;;;;;;;;;;5035110;28;20883;-69
2021/01/04 08:10:44;;;;;;;27.37;12.10;;;;;;;;;;5033730;28;20900;-69
2021/01/04 08:13:10;;;;;;;24.13;11.87;;;;;;;;;;5034573;28;20402;-69
2021/01/04 08:15:37;;;;;;;29.87;13.23;;;;;;;;;;5033493;28;20822;-69
2021/01/04 08:18:04;;;;;;;26.50;12.93;;;;;;;;;;5034837;28;20804;-68
2021/01/04 08:20:31;;;;;;;26.00;12.93;;;;;;;;;;5033379;28;20435;-69
2021/01/04 08:23:06;;;;;;;25.93;13.30;;;;;;;;;;5034170;28;20446;-69
2021/01/04 08:25:52;;;;;;;30.03;15.13;;;;;;;;;;5032281;28;20480;-70
2021/01/04 08:28:24;;;;;;;22.67;11.83;;;;;;;;;;5030498;28;20510;-68
2021/01/04 08:30:55;;;;;;;22.47;12.87;;;;;;;;;;5031234;28;20422;-68
2021/01/04 08:33:26;;;;;;;28.50;14.63;;;;;;;;;;5032774;28;20916;-68
2021/01/04 08:35:53;;;;;;;31.10;13.67;;;;;;;;;;5032057;28;20454;-69
2021/01/04 08:38:19;;;;;;;29.10;13.83;;;;;;;;;;5029348;28;20435;-68
2021/01/04 08:40:57;;;;;;;24.33;12.37;;;;;;;;;;5032337;28;20462;-69
2021/01/04 08:43:50;;;;;;;25.73;11.97;;;;;;;;;;5024478;28;20463;-68
2021/01/04 08:46:24;;;;;;;23.47;12.13;;;;;;;;;;5024254;28;20505;-68
2021/01/04 08:48:56;;;;;;;28.33;12.50;;;;;;;;;;5031649;28;20450;-66
2021/01/04 08:51:25;;;;;;;28.57;15.23;;;;;;;;;;5032410;28;20418;-67
2021/01/04 08:53:51;;;;;;;24.43;12.93;;;;;;;;;;5030039;28;20403;-68
2021/01/04 08:56:23;;;;;;;21.00;12.30;;;;;;;;;;5031634;28;20468;-67
2021/01/04 08:58:51;;;;;;;24.13;13.10;;;;;;;;;;5033063;28;20489;-67
2021/01/04 09:01:22;;;;;;;26.20;12.47;;;;;;;;;;5029641;28;20477;-67
2021/01/04 09:03:48;;;;;;;26.73;13.13;;;;;;;;;;5028481;28;20431;-67
2021/01/04 09:06:23;;;;;;;22.20;10.77;;;;;;;;;;5028266;28;20467;-66
2021/01/04 09:08:52;;;;;;;20.87;10.83;;;;;;;;;;5031920;28;20459;-66
2021/01/04 09:11:19;;;;;;;27.35;13.60;;;;;;;;;;5032357;28;20479;-68
2021/01/04 09:13:48;;;;;;;19.57;12.50;;;;;;;;;;5033821;28;20251;-67
2021/01/04 09:16:14;;;;;;;24.40;12.07;;;;;;;;;;5032617;28;20752;-67
2021/01/04 09:18:50;;;;;;;26.70;13.80;;;;;;;;;;5033481;28;20410;-68
2021/01/04 09:21:22;;;;;;;24.33;12.20;;;;;;;;;;5031693;28;20501;-68
2021/01/04 09:23:48;;;;;;;27.17;12.53;;;;;;;;;;5031221;28;20422;-67
2021/01/04 09:26:25;;;;;;;31.63;14.43;;;;;;;;;;5031078;28;20490;-66
2021/01/04 09:29:02;;;;;;;25.47;13.30;;;;;;;;;;5021165;28;20769;-66
2021/01/04 09:31:28;;;;;;;24.57;12.73;;;;;;;;;;5030566;28;20422;-68
2021/01/04 09:33:53;;;;;;;25.80;12.40;;;;;;;;;;5033559;28;20413;-69
2021/01/04 09:36:20;;;;;;;23.43;11.43;;;;;;;;;;5029879;28;20509;-67
2021/01/04 09:38:48;;;;;;;26.10;12.50;;;;;;;;;;5033097;28;20411;-66
2021/01/04 09:41:14;;;;;;;26.57;13.40;;;;;;;;;;5029760;28;20430;-66
2021/01/04 09:43:40;;;;;;;27.03;13.57;;;;;;;;;;5026249;28;20439;-66
2021/01/04 09:46:19;;;;;;;32.87;15.00;;;;;;;;;;5031881;28;20494;-66
2021/01/04 09:49:02;;;;;;;31.30;13.83;;;;;;;;;;5033321;28;20403;-67
2021/01/04 09:51:49;;;;;;;31.17;17.00;;;;;;;;;;5027176;28;20457;-68
2021/01/04 09:54:20;;;;;;;29.70;15.65;;;;;;;;;;5032562;28;20794;-67
2021/01/04 09:56:46;;;;;;;28.97;14.83;;;;;;;;;;5032551;28;20215;-66
2021/01/04 09:59:18;;;;;;;26.07;13.23;;;;;;;;;;5035428;28;20428;-67
2021/01/04 10:01:46;;;;;;;21.40;12.13;;;;;;;;;;5034850;28;20423;-67
2021/01/04 10:04:12;;;;;;;25.27;13.37;;;;;;;;;;5034510;28;20480;-67
2021/01/04 10:06:40;;;;;;;25.97;12.70;;;;;;;;;;5037354;28;20450;-67
2021/01/04 10:09:10;;;;;;;25.90;13.45;;;;;;;;;;5037178;28;20437;-67
2021/01/04 10:11:36;;;;;;;28.87;14.10;;;;;;;;;;5036273;28;20237;-66
2021/01/04 10:14:07;;;;;;;29.38;15.98;;;;;;;;;;5033914;28;20413;-66
2021/01/04 10:16:34;;;;;;;40.00;13.20;;;;;;;;;;5034937;28;20179;-66
2021/01/04 10:19:03;;;;;;;35.37;12.70;;;;;;;;;;5036069;28;20453;-65
2021/01/04 10:21:30;;;;;;;27.83;14.07;;;;;;;;;;5028701;28;20506;-66
2021/01/04 10:24:06;;;;;;;28.97;14.77;;;;;;;;;;5029812;28;20442;-67
2021/01/04 10:26:41;;;;;;;22.90;11.70;;;;;;;;;;5024815;28;20480;-65
2021/01/04 10:29:08;;;;;;;32.97;17.45;;;;;;;;;;5032561;28;20401;-67
2021/01/04 10:31:35;;;;;;;32.40;15.30;;;;;;;;;;5034558;28;20637;-67
2021/01/04 10:34:11;;;;;;;28.43;14.10;;;;;;;;;;5035814;28;20410;-67
2021/01/04 10:36:39;;;;;;;25.87;12.47;;;;;;;;;;5035446;28;20513;-65
2021/01/04 10:39:16;;;;;;;29.50;12.47;;;;;;;;;;5035729;28;20423;-67
2021/01/04 10:41:42;;;;;;;25.10;13.67;;;;;;;;;;5035398;28;20521;-66
2021/01/04 10:44:08;;;;;;;24.47;13.10;;;;;;;;;;5029037;28;20546;-66
2021/01/04 10:46:36;;;;;;;25.53;12.27;;;;;;;;;;5032968;28;20537;-66
2021/01/04 10:49:05;;;;;;;28.00;14.87;;;;;;;;;;5035283;28;20407;-65
2021/01/04 10:51:31;;;;;;;33.50;15.93;;;;;;;;;;5033206;28;20417;-67
2021/01/04 10:53:57;;;;;;;27.40;13.90;;;;;;;;;;5034304;28;20811;-67
2021/01/04 10:56:37;;;;;;;30.10;13.90;;;;;;;;;;5034862;28;20435;-66
2021/01/04 10:59:10;;;;;;;25.83;14.50;;;;;;;;;;5036113;28;20410;-68
2021/01/04 11:01:38;;;;;;;25.60;13.00;;;;;;;;;;5031858;28;20490;-68
2021/01/04 11:04:14;;;;;;;31.83;14.50;;;;;;;;;;5034732;28;20431;-67
2021/01/04 11:06:42;;;;;;;24.93;14.33;;;;;;;;;;5029730;28;20462;-67
2021/01/04 11:09:16;;;;;;;27.40;13.77;;;;;;;;;;5036255;28;20410;-66
2021/01/04 11:11:44;;;;;;;26.57;13.70;;;;;;;;;;5034574;28;20438;-67
2021/01/04 11:14:13;;;;;;;30.33;14.30;;;;;;;;;;5035554;28;20467;-68
2021/01/04 11:16:47;;;;;;;29.30;13.23;;;;;;;;;;5032473;28;20538;-68
2021/01/04 11:19:14;;;;;;;33.00;13.47;;;;;;;;;;5035632;28;20419;-67
2021/01/04 11:21:44;;;;;;;26.67;14.37;;;;;;;;;;5031837;28;20541;-66
2021/01/04 11:24:10;;;;;;;31.03;14.40;;;;;;;;;;5033373;28;20450;-65
2021/01/04 11:26:36;;;;;;;26.53;14.30;;;;;;;;;;5031097;28;20954;-67
2021/01/04 11:29:03;;;;;;;24.40;13.70;;;;;;;;;;5034835;28;20468;-68
2021/01/04 11:31:35;;;;;;;29.60;15.93;;;;;;;;;;5034142;28;20425;-68
2021/01/04 11:34:01;;;;;;;36.43;15.07;;;;;;;;;;5035195;28;20872;-68
2021/01/04 11:36:27;;;;;;;25.27;14.83;;;;;;;;;;5033799;28;20442;-66
2021/01/04 11:38:53;;;;;;;51.27;16.50;;;;;;;;;;5033477;28;20979;-66
2021/01/04 11:41:19;;;;;;;36.90;16.93;;;;;;;;;;5032373;28;20485;-65
2021/01/04 11:43:47;;;;;;;39.13;17.90;;;;;;;;;;5034931;28;20790;-67
2021/01/04 11:46:14;;;;;;;29.87;15.77;;;;;;;;;;5031736;28;20512;-66
2021/01/04 11:48:40;;;;;;;29.50;14.07;;;;;;;;;;5033305;28;20439;-68
2021/01/04 11:51:06;;;;;;;29.80;15.80;;;;;;;;;;5026108;28;20415;-68
2021/01/04 11:53:32;;;;;;;31.70;15.27;;;;;;;;;;5033829;28;20485;-68
2021/01/04 11:55:59;;;;;;;27.80;16.00;;;;;;;;;;5033629;28;20437;-67
2021/01/04 11:58:25;;;;;;;24.53;13.67;;;;;;;;;;5035752;28;20194;-66
2021/01/04 12:00:52;;;;;;;31.90;15.67;;;;;;;;;;5034092;28;20502;-67
2021/01/04 12:03:18;;;;;;;30.53;15.00;;;;;;;;;;5032933;28;20446;-67
2021/01/04 12:05:44;;;;;;;25.30;15.00;;;;;;;;;;5033462;28;20458;-66
2021/01/04 12:08:10;;;;;;;31.87;15.47;;;;;;;;;;5035154;28;20415;-66
2021/01/04 12:10:36;;;;;;;35.53;15.67;;;;;;;;;;5032483;28;21025;-68
2021/01/04 12:13:03;;;;;;;27.50;14.63;;;;;;;;;;5034169;28;20412;-66
2021/01/04 12:15:29;;;;;;;31.13;13.73;;;;;;;;;;5033487;28;20454;-67
2021/01/04 12:17:55;;;;;;;33.43;16.17;;;;;;;;;;5034521;28;20494;-66
2021/01/04 12:20:21;;;;;;;27.17;15.60;;;;;;;;;;5035688;28;20486;-67
2021/01/04 12:22:47;;;;;;;35.10;17.23;;;;;;;;;;5033235;28;20433;-68
2021/01/04 12:25:14;;;;;;;34.83;19.40;;;;;;;;;;5028641;28;20440;-68
2021/01/04 12:27:40;;;;;;;36.40;18.60;;;;;;;;;;5032225;28;20175;-66
2021/01/04 12:30:06;;;;;;;36.00;18.80;;;;;;;;;;5033805;28;20403;-66
2021/01/04 12:32:32;;;;;;;40.23;18.30;;;;;;;;;;5030115;28;20423;-68
2021/01/04 12:37:27;;;;;;;34.43;17.20;;;;;;;;;;5088344;28;20466;-70
2021/01/04 12:39:53;;;;;;;36.08;17.83;;;;;;;;;;5075928;28;20446;-70
2021/01/04 12:42:19;;;;;;;35.17;19.50;;;;;;;;;;5088322;28;20177;-69
2021/01/04 12:44:46;;;;;;;37.73;18.60;;;;;;;;;;5093840;28;20404;-69
2021/01/04 12:47:12;;;;;;;26.43;15.53;;;;;;;;;;5102664;28;20474;-69
2021/01/04 12:49:38;;;;;;;32.87;18.10;;;;;;;;;;5094063;28;20480;-69
2021/01/04 12:52:05;;;;;;;34.20;17.00;;;;;;;;;;5105475;28;20451;-69
2021/01/04 12:54:31;;;;;;;38.47;18.30;;;;;;;;;;5112883;28;20956;-69
2021/01/04 12:56:58;;;;;;;31.07;17.90;;;;;;;;;;5110788;28;20530;-69
2021/01/04 12:59:26;;;;;;;26.70;15.83;;;;;;;;;;5114173;28;20975;-69
2021/01/04 13:01:52;;;;;;;35.43;17.07;;;;;;;;;;5108124;28;20451;-69
2021/01/04 13:04:22;;;;;;;36.13;17.87;;;;;;;;;;5093583;28;20403;-69
2021/01/04 13:06:49;;;;;;;29.27;13.67;;;;;;;;;;5095197;28;20480;-69
2021/01/04 13:09:15;;;;;;;30.50;19.43;;;;;;;;;;5094089;28;20401;-69
2021/01/04 13:11:45;;;;;;;32.90;17.10;;;;;;;;;;5095344;28;20420;-70
2021/01/04 13:14:11;;;;;;;36.80;16.73;;;;;;;;;;5093172;28;20479;-70
2021/01/04 13:16:40;;;;;;;33.50;17.63;;;;;;;;;;5092709;28;20570;-70
2021/01/04 13:19:07;;;;;;;30.33;17.50;;;;;;;;;;5092702;28;20399;-70
2021/01/04 13:21:33;;;;;;;29.97;17.40;;;;;;;;;;5092083;28;20420;-70
2021/01/04 13:24:00;;;;;;;29.00;14.30;;;;;;;;;;5092471;28;20408;-70
2021/01/04 13:26:26;;;;;;;31.87;16.40;;;;;;;;;;5092098;28;20975;-70
2021/01/04 13:28:52;;;;;;;28.80;14.97;;;;;;;;;;5092340;28;20392;-70
2021/01/04 13:31:26;;;;;;;34.87;15.53;;;;;;;;;;5094663;28;20907;-70
2021/01/04 13:33:52;;;;;;;40.33;17.40;;;;;;;;;;5092066;28;20396;-70
2021/01/04 13:36:19;;;;;;;34.13;15.83;;;;;;;;;;5091385;28;20460;-71
2021/01/04 13:38:45;;;;;;;30.97;16.53;;;;;;;;;;5089057;28;20436;-71
2021/01/04 13:41:13;;;;;;;31.30;15.50;;;;;;;;;;5086878;28;20948;-69
2021/01/04 13:43:39;;;;;;;37.13;17.17;;;;;;;;;;5092303;28;20408;-70
2021/01/04 13:46:05;;;;;;;35.17;15.80;;;;;;;;;;5093151;28;20455;-70
2021/01/04 13:48:31;;;;;;;35.60;16.53;;;;;;;;;;5114093;28;20441;-70
2021/01/04 13:50:57;;;;;;;29.93;16.10;;;;;;;;;;5099633;28;20776;-70
2021/01/04 13:53:23;;;;;;;40.00;17.50;;;;;;;;;;5112321;28;20552;-69
2021/01/04 13:55:49;;;;;;;23.23;14.20;;;;;;;;;;5114014;28;20561;-70
2021/01/04 13:58:15;;;;;;;35.33;16.07;;;;;;;;;;5110409;28;20528;-70
2021/01/04 14:00:41;;;;;;;39.20;15.20;;;;;;;;;;5093133;28;20435;-69
2021/01/04 14:03:07;;;;;;;29.47;15.07;;;;;;;;;;5092029;28;20518;-69
2021/01/04 14:05:33;;;;;;;25.27;14.77;;;;;;;;;;5099304;28;20470;-70
2021/01/04 14:07:59;;;;;;;37.77;17.43;;;;;;;;;;5111500;28;20565;-69
2021/01/04 14:10:25;;;;;;;27.67;13.93;;;;;;;;;;5104034;28;20450;-70
2021/01/04 14:12:51;;;;;;;27.17;13.93;;;;;;;;;;5092139;28;20530;-69
2021/01/04 14:15:18;;;;;;;24.50;13.10;;;;;;;;;;5092839;28;20410;-70
2021/01/04 14:17:44;;;;;;;29.67;14.37;;;;;;;;;;5106239;28;20430;-69
2021/01/04 14:20:11;;;;;;;30.40;14.20;;;;;;;;;;5113248;28;20404;-69
2021/01/04 14:22:38;;;;;;;29.43;14.53;;;;;;;;;;5111248;28;20919;-69
2021/01/04 14:25:04;;;;;;;29.73;14.37;;;;;;;;;;5107581;28;20784;-69
2021/01/04 14:27:30;;;;;;;29.13;14.73;;;;;;;;;;5080598;28;20445;-69
2021/01/04 14:29:56;;;;;;;33.33;15.87;;;;;;;;;;5072627;28;20397;-69
2021/01/04 14:32:25;;;;;;;33.63;15.67;;;;;;;;;;5077160;28;20508;-70
2021/01/04 14:34:52;;;;;;;34.93;17.00;;;;;;;;;;5089676;28;20408;-70
2021/01/04 14:37:19;;;;;;;41.43;18.03;;;;;;;;;;5092210;28;20466;-70
2021/01/04 14:39:45;;;;;;;32.17;16.70;;;;;;;;;;5091217;28;20442;-70
2021/01/04 14:42:15;;;;;;;29.93;15.57;;;;;;;;;;5091879;28;20423;-70
2021/01/04 14:44:41;;;;;;;34.50;16.47;;;;;;;;;;5112912;28;20760;-70
2021/01/04 14:47:07;;;;;;;26.50;15.77;;;;;;;;;;5111369;28;20456;-70